Airport ID:KFOT
Update Time (UTC):20 MAY 19 16:49
Wind Speed (Knots):4
Wind Direction (Magnetic):110
Temperature (°C):13
Dew Point (°C):9
Humidity (%):72
Altimeter (inHg):29.94
Density Altitude (Feet):
Visibility (Miles):10
Clouds (Hundreds of feet):FEW110
Present Weather:
METAR:METAR KFOT 201645Z AUTO 14005KT 10SM FEW110 13/09 A2994 RMK AO1

The data displayed is for advisory purposes only and is not to be used for flight planning or operations.

This page is not automatically refreshed. Reload the page to see current data.